Time;durP1;ratioP1;P1;durP2;ratioP2;P2;SDS_P1;SDS_P2;PMS_P1;PMS_P2;Temp;Humidity;BMP_temperature;BMP_pressure;BME280_temperature;BME280_humidity;BME280_pressure;Samples;Min_cycle;Max_cycle;Signal;HPM_P1;HPM_P2
2021/09/17 00:01:37;;;;;;;3.70;2.10;;;;;;;;;;5119467;28;20214;-62
2021/09/17 00:04:05;;;;;;;2.43;2.23;;;;;;;;;;5119364;28;20234;-62
2021/09/17 00:06:33;;;;;;;2.33;2.00;;;;;;;;;;5118826;28;20309;-62
2021/09/17 00:09:01;;;;;;;2.40;2.20;;;;;;;;;;5119335;28;20214;-62
2021/09/17 00:11:31;;;;;;;3.87;2.20;;;;;;;;;;5119308;28;20212;-62
2021/09/17 00:14:00;;;;;;;2.17;1.90;;;;;;;;;;5119087;28;20238;-62
2021/09/17 00:16:28;;;;;;;2.77;2.03;;;;;;;;;;5118785;28;20710;-62
2021/09/17 00:18:56;;;;;;;3.13;2.47;;;;;;;;;;5118917;28;20203;-63
2021/09/17 00:21:24;;;;;;;5.70;2.23;;;;;;;;;;5118720;28;20614;-62
2021/09/17 00:23:52;;;;;;;3.37;2.03;;;;;;;;;;5119088;28;20221;-62
2021/09/17 00:26:20;;;;;;;2.30;2.00;;;;;;;;;;5118881;28;20283;-63
2021/09/17 00:28:50;;;;;;;2.43;2.23;;;;;;;;;;5118081;28;20275;-63
2021/09/17 00:31:18;;;;;;;3.87;2.40;;;;;;;;;;5118763;28;20212;-62
2021/09/17 00:33:46;;;;;;;3.37;1.90;;;;;;;;;;5118800;28;20237;-62
2021/09/17 00:36:14;;;;;;;3.20;1.87;;;;;;;;;;5118650;28;20206;-62
2021/09/17 00:38:42;;;;;;;3.33;1.70;;;;;;;;;;5118663;28;20687;-62
2021/09/17 00:41:11;;;;;;;2.57;1.90;;;;;;;;;;5118842;28;20209;-64
2021/09/17 00:43:39;;;;;;;1.90;1.70;;;;;;;;;;5118658;28;20223;-62
2021/09/17 00:46:08;;;;;;;2.20;2.00;;;;;;;;;;5118689;28;20206;-62
2021/09/17 00:48:36;;;;;;;2.03;1.67;;;;;;;;;;5118519;28;20311;-62
2021/09/17 00:51:04;;;;;;;1.97;1.87;;;;;;;;;;5118319;28;20265;-62
2021/09/17 00:53:34;;;;;;;2.70;1.70;;;;;;;;;;5118460;28;20296;-61
2021/09/17 00:56:03;;;;;;;2.70;2.30;;;;;;;;;;5118586;28;20277;-61
2021/09/17 00:58:31;;;;;;;2.97;1.80;;;;;;;;;;5118158;28;20210;-62
2021/09/17 01:00:59;;;;;;;3.70;1.80;;;;;;;;;;5118017;28;20569;-64
2021/09/17 01:03:29;;;;;;;1.70;1.60;;;;;;;;;;5118124;28;20205;-64
2021/09/17 01:06:00;;;;;;;5.00;1.70;;;;;;;;;;5117630;28;20589;-63
2021/09/17 01:08:28;;;;;;;1.80;1.70;;;;;;;;;;5118433;28;20316;-62
2021/09/17 01:10:56;;;;;;;2.47;2.17;;;;;;;;;;5118223;28;20284;-62
2021/09/17 01:13:24;;;;;;;2.50;2.00;;;;;;;;;;5118238;28;20208;-62
2021/09/17 01:15:52;;;;;;;1.83;1.70;;;;;;;;;;5118081;28;20227;-64
2021/09/17 01:18:20;;;;;;;3.77;1.83;;;;;;;;;;5118334;28;20209;-64
2021/09/17 01:20:50;;;;;;;3.63;1.73;;;;;;;;;;5117942;28;20207;-63
2021/09/17 01:23:19;;;;;;;2.60;1.70;;;;;;;;;;5118532;28;20714;-63
2021/09/17 01:25:47;;;;;;;2.53;1.70;;;;;;;;;;5118088;28;20224;-63
2021/09/17 01:28:21;;;;;;;2.63;1.90;;;;;;;;;;5117967;28;20228;-63
2021/09/17 01:30:49;;;;;;;2.70;2.00;;;;;;;;;;5118132;28;20211;-64
2021/09/17 01:33:17;;;;;;;1.80;1.70;;;;;;;;;;5117777;28;20611;-64
2021/09/17 01:35:45;;;;;;;2.57;1.90;;;;;;;;;;5117546;28;20303;-64
2021/09/17 01:38:13;;;;;;;2.30;2.10;;;;;;;;;;5117822;28;20292;-61
2021/09/17 01:40:42;;;;;;;1.60;1.50;;;;;;;;;;5120882;28;20208;-62
2021/09/17 01:43:10;;;;;;;2.53;1.80;;;;;;;;;;5121928;27;20209;-64
2021/09/17 01:45:38;;;;;;;1.80;1.70;;;;;;;;;;5121921;28;20229;-63
2021/09/17 01:48:06;;;;;;;2.00;1.80;;;;;;;;;;5121933;28;20225;-63
2021/09/17 01:50:34;;;;;;;4.43;2.07;;;;;;;;;;5122008;28;20213;-63
2021/09/17 01:53:02;;;;;;;1.67;1.47;;;;;;;;;;5121868;28;20201;-63
2021/09/17 01:55:30;;;;;;;5.03;1.90;;;;;;;;;;5122033;28;20231;-63
2021/09/17 01:58:00;;;;;;;3.70;1.70;;;;;;;;;;5121709;28;20201;-63
2021/09/17 02:00:28;;;;;;;2.57;1.60;;;;;;;;;;5121958;28;20211;-63
2021/09/17 02:02:56;;;;;;;1.97;1.77;;;;;;;;;;5121783;28;20237;-63
2021/09/17 02:05:24;;;;;;;1.87;1.77;;;;;;;;;;5121305;28;20225;-63
2021/09/17 02:07:52;;;;;;;1.87;1.77;;;;;;;;;;5121531;28;20229;-63
2021/09/17 02:10:20;;;;;;;2.10;1.90;;;;;;;;;;5121606;28;20211;-64
2021/09/17 02:12:48;;;;;;;2.00;1.90;;;;;;;;;;5121714;28;20205;-63
2021/09/17 02:15:18;;;;;;;2.00;1.80;;;;;;;;;;5121551;28;20309;-64
2021/09/17 02:17:46;;;;;;;3.00;1.70;;;;;;;;;;5121478;28;20200;-63
2021/09/17 02:20:14;;;;;;;2.27;1.73;;;;;;;;;;5121148;28;20582;-63
2021/09/17 02:22:42;;;;;;;3.40;1.73;;;;;;;;;;5121055;28;20205;-63
2021/09/17 02:25:10;;;;;;;2.53;2.33;;;;;;;;;;5121258;28;20225;-63
2021/09/17 02:27:38;;;;;;;2.20;2.00;;;;;;;;;;5121052;27;20315;-63
2021/09/17 02:30:08;;;;;;;5.30;2.13;;;;;;;;;;5120827;28;20205;-63
2021/09/17 02:32:37;;;;;;;2.20;1.80;;;;;;;;;;5121022;28;20303;-63
2021/09/17 02:35:06;;;;;;;2.60;1.97;;;;;;;;;;5120644;28;20274;-63
2021/09/17 02:37:34;;;;;;;2.33;1.90;;;;;;;;;;5120858;28;20207;-63
2021/09/17 02:40:02;;;;;;;2.30;2.10;;;;;;;;;;5121202;28;20201;-63
2021/09/17 02:42:30;;;;;;;2.20;2.00;;;;;;;;;;5121083;28;20216;-63
2021/09/17 02:44:59;;;;;;;2.37;2.17;;;;;;;;;;5120930;28;20224;-63
2021/09/17 02:47:27;;;;;;;3.07;1.97;;;;;;;;;;5120858;28;20206;-63
2021/09/17 02:49:56;;;;;;;2.83;2.10;;;;;;;;;;5120775;28;20268;-64
2021/09/17 02:52:24;;;;;;;2.07;1.80;;;;;;;;;;5119910;28;20212;-63
2021/09/17 02:54:52;;;;;;;3.23;1.97;;;;;;;;;;5120684;28;20239;-63
2021/09/17 02:57:20;;;;;;;4.27;2.30;;;;;;;;;;5113544;28;20212;-63
2021/09/17 02:59:48;;;;;;;2.50;2.30;;;;;;;;;;5108763;28;20200;-63
2021/09/17 03:02:17;;;;;;;2.60;2.37;;;;;;;;;;5108400;28;20212;-63
2021/09/17 03:04:45;;;;;;;2.00;1.80;;;;;;;;;;5107631;28;20217;-61
2021/09/17 03:07:15;;;;;;;2.50;2.27;;;;;;;;;;5108901;28;20246;-63
2021/09/17 03:09:43;;;;;;;2.43;2.17;;;;;;;;;;5107752;28;20283;-63
2021/09/17 03:12:11;;;;;;;2.90;2.00;;;;;;;;;;5108509;28;20201;-63
2021/09/17 03:14:39;;;;;;;4.07;2.53;;;;;;;;;;5105557;28;20710;-63
2021/09/17 03:17:07;;;;;;;2.50;2.20;;;;;;;;;;5108036;28;20197;-63
2021/09/17 03:19:35;;;;;;;2.93;2.60;;;;;;;;;;5108496;28;20653;-62
2021/09/17 03:22:03;;;;;;;4.03;2.40;;;;;;;;;;5105639;28;20288;-63
2021/09/17 03:24:32;;;;;;;3.83;2.60;;;;;;;;;;5108176;28;20223;-63
2021/09/17 03:27:01;;;;;;;2.73;2.47;;;;;;;;;;5107490;28;20280;-63
2021/09/17 03:29:29;;;;;;;3.63;2.20;;;;;;;;;;5108327;28;20217;-63
2021/09/17 03:31:57;;;;;;;3.40;3.00;;;;;;;;;;5107340;28;20193;-63
2021/09/17 03:34:25;;;;;;;4.90;3.27;;;;;;;;;;5106384;28;20216;-63
2021/09/17 03:36:53;;;;;;;5.60;3.13;;;;;;;;;;5103933;28;20202;-63
2021/09/17 03:39:21;;;;;;;4.03;3.10;;;;;;;;;;5106818;28;20199;-63
2021/09/17 03:41:50;;;;;;;3.37;3.07;;;;;;;;;;5105258;28;20208;-63
2021/09/17 03:44:18;;;;;;;4.43;2.97;;;;;;;;;;5106739;28;20221;-63
2021/09/17 03:46:46;;;;;;;4.60;2.57;;;;;;;;;;5104090;28;20284;-63
2021/09/17 03:49:14;;;;;;;3.50;2.73;;;;;;;;;;5107951;28;20221;-63
2021/09/17 03:51:42;;;;;;;3.57;3.03;;;;;;;;;;5103216;28;20198;-63
2021/09/17 03:54:10;;;;;;;2.93;2.30;;;;;;;;;;5107779;28;20225;-63
2021/09/17 03:56:38;;;;;;;3.70;3.03;;;;;;;;;;5110589;28;20579;-63
2021/09/17 03:59:08;;;;;;;2.53;2.33;;;;;;;;;;5118934;28;20205;-63
2021/09/17 04:01:36;;;;;;;3.13;2.73;;;;;;;;;;5110753;28;20208;-63
2021/09/17 04:04:04;;;;;;;4.93;3.33;;;;;;;;;;5103112;27;20232;-63
2021/09/17 04:06:32;;;;;;;3.43;2.57;;;;;;;;;;5139368;27;20318;-63
2021/09/17 04:09:00;;;;;;;4.60;3.40;;;;;;;;;;5119071;27;20221;-63
2021/09/17 04:11:29;;;;;;;3.40;2.47;;;;;;;;;;5110849;28;20219;-63
2021/09/17 04:13:57;;;;;;;4.97;2.70;;;;;;;;;;5119018;28;20225;-63
2021/09/17 04:16:26;;;;;;;4.57;3.00;;;;;;;;;;5119204;27;20209;-62
2021/09/17 04:18:54;;;;;;;4.90;3.33;;;;;;;;;;5118958;28;20205;-63
2021/09/17 04:21:22;;;;;;;3.40;3.10;;;;;;;;;;5118705;28;20201;-62
2021/09/17 04:23:50;;;;;;;3.17;2.90;;;;;;;;;;5118622;28;20235;-63
2021/09/17 04:26:18;;;;;;;3.87;2.97;;;;;;;;;;5119025;28;20288;-62
2021/09/17 04:28:46;;;;;;;6.23;2.93;;;;;;;;;;5123714;27;20220;-62
2021/09/17 04:31:14;;;;;;;4.60;3.07;;;;;;;;;;5139647;27;20209;-62
2021/09/17 04:33:43;;;;;;;5.63;3.40;;;;;;;;;;5136900;27;20204;-61
2021/09/17 04:36:11;;;;;;;4.13;3.27;;;;;;;;;;5105297;28;20292;-61
2021/09/17 04:38:39;;;;;;;5.27;3.20;;;;;;;;;;5112789;28;20209;-61
2021/09/17 04:41:07;;;;;;;3.43;3.20;;;;;;;;;;5118711;28;20204;-62
2021/09/17 04:43:35;;;;;;;3.77;3.03;;;;;;;;;;5118459;28;20741;-61
2021/09/17 04:46:03;;;;;;;3.07;2.87;;;;;;;;;;5118255;28;20205;-62
2021/09/17 04:48:31;;;;;;;3.83;3.07;;;;;;;;;;5118587;28;20219;-62
2021/09/17 04:51:00;;;;;;;5.17;3.20;;;;;;;;;;5118320;28;20209;-61
2021/09/17 04:53:28;;;;;;;3.63;3.20;;;;;;;;;;5118580;28;20205;-62
2021/09/17 04:55:56;;;;;;;4.53;3.40;;;;;;;;;;5118483;28;20644;-62
2021/09/17 04:58:43;;;;;;;3.93;3.10;;;;;;;;;;5118460;27;20205;-62
2021/09/17 05:01:11;;;;;;;3.67;3.37;;;;;;;;;;5118247;28;20209;-61
2021/09/17 05:03:39;;;;;;;3.17;2.97;;;;;;;;;;5118299;28;20208;-61
2021/09/17 05:06:09;;;;;;;4.70;3.40;;;;;;;;;;5117783;28;20243;-62
2021/09/17 05:08:38;;;;;;;4.30;3.00;;;;;;;;;;5118268;28;20647;-61
2021/09/17 05:11:05;;;;;;;6.00;2.90;;;;;;;;;;5118114;28;20200;-62
2021/09/17 05:13:33;;;;;;;4.53;2.80;;;;;;;;;;5118289;28;20268;-62
2021/09/17 05:16:02;;;;;;;3.57;3.27;;;;;;;;;;5117685;28;20293;-62
2021/09/17 05:18:29;;;;;;;4.93;3.33;;;;;;;;;;5117876;28;20678;-62
2021/09/17 05:20:57;;;;;;;6.07;3.10;;;;;;;;;;5118043;28;20695;-61
2021/09/17 05:23:27;;;;;;;4.80;3.40;;;;;;;;;;5117796;28;20287;-62
2021/09/17 05:25:55;;;;;;;4.33;3.07;;;;;;;;;;5117860;28;20656;-62
2021/09/17 05:28:23;;;;;;;6.83;3.33;;;;;;;;;;5117829;28;20573;-61
2021/09/17 05:30:51;;;;;;;4.37;3.30;;;;;;;;;;5118049;28;20224;-62
2021/09/17 05:33:19;;;;;;;5.63;3.40;;;;;;;;;;5117773;28;20571;-61
2021/09/17 05:35:47;;;;;;;5.13;3.57;;;;;;;;;;5117605;28;20229;-63
2021/09/17 05:38:15;;;;;;;4.13;3.13;;;;;;;;;;5117811;28;20332;-61
2021/09/17 05:40:44;;;;;;;4.07;3.10;;;;;;;;;;5117865;28;20201;-63
2021/09/17 05:43:12;;;;;;;3.67;3.37;;;;;;;;;;5118101;28;20200;-61
2021/09/17 05:45:40;;;;;;;4.27;3.40;;;;;;;;;;5117878;28;20230;-60
2021/09/17 05:48:08;;;;;;;7.07;3.30;;;;;;;;;;5117400;28;20296;-61
2021/09/17 05:50:36;;;;;;;6.50;3.73;;;;;;;;;;5117514;28;20229;-60
2021/09/17 05:53:04;;;;;;;7.10;3.50;;;;;;;;;;5117694;28;20215;-61
2021/09/17 05:55:32;;;;;;;3.83;3.40;;;;;;;;;;5117569;28;20567;-61
2021/09/17 05:58:02;;;;;;;3.50;3.20;;;;;;;;;;5117747;28;20296;-62
2021/09/17 06:00:30;;;;;;;6.67;3.63;;;;;;;;;;5117727;28;20205;-61
2021/09/17 06:02:58;;;;;;;3.47;3.17;;;;;;;;;;5117455;28;20220;-61
2021/09/17 06:05:26;;;;;;;7.50;3.80;;;;;;;;;;5117209;28;20225;-61
2021/09/17 06:07:54;;;;;;;3.80;2.97;;;;;;;;;;5117647;28;20643;-62
2021/09/17 06:10:22;;;;;;;5.33;3.10;;;;;;;;;;5117559;28;20676;-63
2021/09/17 06:12:50;;;;;;;2.97;2.73;;;;;;;;;;5117612;28;20653;-62
2021/09/17 06:15:19;;;;;;;3.97;3.67;;;;;;;;;;5117242;28;20231;-61
2021/09/17 06:17:47;;;;;;;5.83;3.63;;;;;;;;;;5117284;28;20215;-60
2021/09/17 06:20:15;;;;;;;5.77;3.50;;;;;;;;;;5117211;28;20288;-63
2021/09/17 06:22:45;;;;;;;4.23;2.90;;;;;;;;;;5117731;28;20292;-61
2021/09/17 06:25:15;;;;;;;3.73;3.13;;;;;;;;;;5117609;28;20256;-61
2021/09/17 06:27:43;;;;;;;6.80;3.40;;;;;;;;;;5120242;28;20549;-61
2021/09/17 06:30:11;;;;;;;4.20;3.20;;;;;;;;;;5121207;28;20224;-63
2021/09/17 06:32:41;;;;;;;4.70;3.00;;;;;;;;;;5121160;28;20210;-63
2021/09/17 06:35:09;;;;;;;4.07;3.43;;;;;;;;;;5120676;28;20235;-63
2021/09/17 06:37:44;;;;;;;4.13;3.73;;;;;;;;;;5121029;28;20216;-64
2021/09/17 06:40:12;;;;;;;7.30;3.73;;;;;;;;;;5121172;28;20200;-61
2021/09/17 06:42:40;;;;;;;6.57;3.50;;;;;;;;;;5120947;28;20205;-63
2021/09/17 06:45:08;;;;;;;4.57;3.70;;;;;;;;;;5120825;28;20221;-63
2021/09/17 06:47:45;;;;;;;6.90;3.70;;;;;;;;;;5120968;28;20287;-63
2021/09/17 06:50:13;;;;;;;13.17;8.30;;;;;;;;;;5120098;28;20225;-63
2021/09/17 06:52:47;;;;;;;5.83;3.60;;;;;;;;;;5120766;27;20684;-63
2021/09/17 06:55:16;;;;;;;6.17;3.70;;;;;;;;;;5120692;28;20734;-63
2021/09/17 06:57:47;;;;;;;8.57;4.10;;;;;;;;;;5120838;28;20296;-63
2021/09/17 07:00:16;;;;;;;4.90;3.40;;;;;;;;;;5120666;28;20212;-63
2021/09/17 07:02:46;;;;;;;6.00;2.93;;;;;;;;;;5120649;28;20203;-64
2021/09/17 07:05:14;;;;;;;6.60;3.70;;;;;;;;;;5120205;28;20304;-62
2021/09/17 07:07:42;;;;;;;5.50;4.17;;;;;;;;;;5120343;28;20239;-63
2021/09/17 07:10:11;;;;;;;7.03;4.00;;;;;;;;;;5120568;28;20231;-63
2021/09/17 07:12:39;;;;;;;4.87;4.10;;;;;;;;;;5120473;28;20209;-63
2021/09/17 07:15:08;;;;;;;7.50;3.83;;;;;;;;;;5120147;28;20587;-61
2021/09/17 07:17:36;;;;;;;7.23;3.93;;;;;;;;;;5120329;28;20209;-63
2021/09/17 07:20:06;;;;;;;4.97;3.97;;;;;;;;;;5119824;28;20200;-63
2021/09/17 07:22:34;;;;;;;4.97;4.40;;;;;;;;;;5120204;28;20215;-63
2021/09/17 07:25:03;;;;;;;4.10;3.30;;;;;;;;;;5120160;28;20224;-62
2021/09/17 07:27:31;;;;;;;4.27;3.47;;;;;;;;;;5120285;28;20205;-63
2021/09/17 07:30:00;;;;;;;4.77;3.70;;;;;;;;;;5120063;28;20212;-63
2021/09/17 07:32:28;;;;;;;4.93;3.70;;;;;;;;;;5119836;28;20738;-63
2021/09/17 07:34:56;;;;;;;3.80;3.50;;;;;;;;;;5119953;28;20655;-61
2021/09/17 07:37:25;;;;;;;6.43;3.77;;;;;;;;;;5119281;28;20212;-63
2021/09/17 07:39:53;;;;;;;4.30;3.50;;;;;;;;;;5119785;28;20549;-63
2021/09/17 07:42:21;;;;;;;5.33;3.73;;;;;;;;;;5119929;28;20220;-62
2021/09/17 07:44:49;;;;;;;4.97;3.90;;;;;;;;;;5119455;28;20585;-62
2021/09/17 07:47:17;;;;;;;4.17;3.53;;;;;;;;;;5119956;28;20264;-62
2021/09/17 07:49:45;;;;;;;5.50;4.03;;;;;;;;;;5119659;28;20209;-63
2021/09/17 07:52:13;;;;;;;5.70;3.23;;;;;;;;;;5119411;28;20307;-61
2021/09/17 07:54:42;;;;;;;5.17;3.07;;;;;;;;;;5119857;28;20225;-63
2021/09/17 07:57:10;;;;;;;5.40;4.37;;;;;;;;;;5119606;27;20205;-63
2021/09/17 07:59:38;;;;;;;5.37;3.80;;;;;;;;;;5119497;28;20205;-63
2021/09/17 08:02:06;;;;;;;6.10;4.10;;;;;;;;;;5119374;28;20288;-63
2021/09/17 08:04:38;;;;;;;6.90;4.17;;;;;;;;;;5119190;28;20224;-63
2021/09/17 08:07:06;;;;;;;6.93;3.80;;;;;;;;;;5118700;28;20726;-63
2021/09/17 08:09:34;;;;;;;10.40;4.27;;;;;;;;;;5119438;28;20208;-63
2021/09/17 08:12:04;;;;;;;5.63;3.53;;;;;;;;;;5119032;28;20224;-63
2021/09/17 08:14:32;;;;;;;7.97;4.37;;;;;;;;;;5118935;28;20585;-63
2021/09/17 08:17:00;;;;;;;7.73;4.33;;;;;;;;;;5118709;28;20333;-63
2021/09/17 08:19:28;;;;;;;7.47;3.67;;;;;;;;;;5119002;28;20209;-61
2021/09/17 08:21:56;;;;;;;5.77;3.70;;;;;;;;;;5118680;28;20201;-63
2021/09/17 08:24:24;;;;;;;8.47;3.77;;;;;;;;;;5118894;28;20300;-63
2021/09/17 08:26:53;;;;;;;4.70;4.27;;;;;;;;;;5118924;27;20231;-63
2021/09/17 08:29:22;;;;;;;4.40;4.00;;;;;;;;;;5119069;28;20222;-63
2021/09/17 08:31:50;;;;;;;8.77;5.07;;;;;;;;;;5118720;28;20246;-61
2021/09/17 08:34:18;;;;;;;6.90;4.07;;;;;;;;;;5118890;28;20338;-62
2021/09/17 08:36:46;;;;;;;4.63;4.03;;;;;;;;;;5118740;28;20229;-63
2021/09/17 08:39:15;;;;;;;4.93;3.63;;;;;;;;;;5118666;28;20205;-63
2021/09/17 08:41:44;;;;;;;4.33;3.77;;;;;;;;;;5118788;28;20205;-62
2021/09/17 08:44:12;;;;;;;5.00;3.37;;;;;;;;;;5118780;28;20225;-63
2021/09/17 08:46:42;;;;;;;5.10;3.70;;;;;;;;;;5118607;27;20209;-63
2021/09/17 08:49:10;;;;;;;7.53;4.37;;;;;;;;;;5117686;28;20607;-63
2021/09/17 08:51:38;;;;;;;5.17;3.50;;;;;;;;;;5118142;28;20558;-63
2021/09/17 08:54:06;;;;;;;5.43;3.47;;;;;;;;;;5118409;28;20303;-63
2021/09/17 08:56:34;;;;;;;9.00;3.30;;;;;;;;;;5118290;28;20284;-63
2021/09/17 08:59:02;;;;;;;4.53;3.47;;;;;;;;;;5118326;28;20205;-62
2021/09/17 09:01:32;;;;;;;3.90;3.13;;;;;;;;;;5118509;28;20283;-63
2021/09/17 09:04:02;;;;;;;4.40;3.50;;;;;;;;;;5117981;28;20762;-60
2021/09/17 09:06:34;;;;;;;4.50;3.47;;;;;;;;;;5117787;28;20264;-63
2021/09/17 09:09:04;;;;;;;6.43;2.83;;;;;;;;;;5118022;28;20209;-62
2021/09/17 09:11:33;;;;;;;4.50;3.23;;;;;;;;;;5118351;28;20309;-62
2021/09/17 09:14:06;;;;;;;5.70;4.33;;;;;;;;;;5118297;28;20277;-63
2021/09/17 09:16:35;;;;;;;5.83;3.80;;;;;;;;;;5118023;28;20287;-62
2021/09/17 09:19:17;;;;;;;3.50;3.20;;;;;;;;;;5118343;28;20314;-63
2021/09/17 09:21:46;;;;;;;7.70;3.47;;;;;;;;;;5117611;28;20288;-63
2021/09/17 09:24:14;;;;;;;4.37;3.47;;;;;;;;;;5117972;28;20307;-63
2021/09/17 09:26:44;;;;;;;6.83;4.20;;;;;;;;;;5118112;28;20292;-63
2021/09/17 09:29:28;;;;;;;3.80;3.10;;;;;;;;;;5117813;28;20683;-62
2021/09/17 09:31:57;;;;;;;9.17;3.60;;;;;;;;;;5117638;28;20235;-63
2021/09/17 09:34:46;;;;;;;4.73;3.47;;;;;;;;;;5117771;28;20632;-60
2021/09/17 09:37:17;;;;;;;3.70;3.40;;;;;;;;;;5118006;28;20278;-60
2021/09/17 09:39:56;;;;;;;7.23;3.53;;;;;;;;;;5118054;28;20217;-61
2021/09/17 09:42:35;;;;;;;6.03;4.10;;;;;;;;;;5114561;28;20197;-63
2021/09/17 09:45:13;;;;;;;5.47;3.57;;;;;;;;;;5117585;28;20621;-63
2021/09/17 09:47:41;;;;;;;7.83;3.50;;;;;;;;;;5114843;28;20197;-62
2021/09/17 09:50:11;;;;;;;4.60;3.53;;;;;;;;;;5117423;28;20203;-60
2021/09/17 09:52:40;;;;;;;3.63;3.33;;;;;;;;;;5117444;28;20222;-62
2021/09/17 09:55:09;;;;;;;4.80;3.37;;;;;;;;;;5117710;28;20238;-62
2021/09/17 09:57:37;;;;;;;5.00;4.50;;;;;;;;;;5117533;28;20246;-61
2021/09/17 10:00:08;;;;;;;5.73;3.83;;;;;;;;;;5117778;28;20203;-62
2021/09/17 10:02:36;;;;;;;4.60;2.87;;;;;;;;;;5121479;28;20280;-62
2021/09/17 10:05:07;;;;;;;3.87;3.27;;;;;;;;;;5121299;28;20225;-62
2021/09/17 10:07:35;;;;;;;4.70;2.83;;;;;;;;;;5121299;28;20700;-62
2021/09/17 10:10:07;;;;;;;3.40;3.10;;;;;;;;;;5121358;28;20232;-60
2021/09/17 10:12:35;;;;;;;4.23;2.80;;;;;;;;;;5121603;28;20231;-61
2021/09/17 10:15:04;;;;;;;6.27;3.10;;;;;;;;;;5120973;28;20664;-61
2021/09/17 10:17:38;;;;;;;5.43;3.00;;;;;;;;;;5121347;28;20215;-60
2021/09/17 10:20:07;;;;;;;5.90;2.90;;;;;;;;;;5121480;28;20209;-60
2021/09/17 10:22:35;;;;;;;6.90;3.00;;;;;;;;;;5121711;28;20206;-60
2021/09/17 10:25:13;;;;;;;4.03;3.40;;;;;;;;;;5120813;28;20223;-62
2021/09/17 10:27:42;;;;;;;6.40;3.60;;;;;;;;;;5121615;28;20216;-61
2021/09/17 10:30:11;;;;;;;5.50;3.10;;;;;;;;;;5121397;28;20219;-61
2021/09/17 10:32:44;;;;;;;2.57;2.23;;;;;;;;;;5121255;28;20221;-62
2021/09/17 10:35:13;;;;;;;2.93;2.60;;;;;;;;;;5120577;28;20263;-61
2021/09/17 10:37:52;;;;;;;3.47;2.57;;;;;;;;;;5120970;27;20208;-63
2021/09/17 10:40:33;;;;;;;2.87;2.67;;;;;;;;;;5121197;28;20280;-63
2021/09/17 10:46:31;;;;;;;6.13;2.87;;;;;;;;;;5120265;28;20552;-62
2021/09/17 10:49:01;;;;;;;3.17;2.53;;;;;;;;;;5120751;28;20208;-61
2021/09/17 10:51:30;;;;;;;4.73;2.73;;;;;;;;;;5120515;28;20324;-61
2021/09/17 10:53:58;;;;;;;2.37;2.20;;;;;;;;;;5120504;28;20695;-62
2021/09/17 10:56:28;;;;;;;4.07;2.47;;;;;;;;;;5120938;28;20228;-60
2021/09/17 10:59:10;;;;;;;2.57;2.20;;;;;;;;;;5120391;28;20557;-60
2021/09/17 11:01:55;;;;;;;2.33;1.83;;;;;;;;;;5120401;28;20665;-60
2021/09/17 11:04:25;;;;;;;3.40;1.87;;;;;;;;;;5120519;28;20233;-62
2021/09/17 11:06:54;;;;;;;2.93;2.30;;;;;;;;;;5120213;28;20291;-62
2021/09/17 11:09:46;;;;;;;2.33;1.90;;;;;;;;;;5120550;28;20206;-62
2021/09/17 11:12:16;;;;;;;2.37;1.87;;;;;;;;;;5104430;28;20232;-62
2021/09/17 11:14:45;;;;;;;1.80;1.60;;;;;;;;;;5120511;28;20224;-62
2021/09/17 11:17:16;;;;;;;1.90;1.80;;;;;;;;;;5120371;28;20219;-63
2021/09/17 11:19:45;;;;;;;3.03;2.30;;;;;;;;;;5119991;28;20637;-61
2021/09/17 11:22:15;;;;;;;2.77;2.53;;;;;;;;;;5119635;28;20206;-61
2021/09/17 11:24:42;;;;;;;2.90;2.20;;;;;;;;;;5119849;28;20222;-61
2021/09/17 11:27:11;;;;;;;4.43;2.27;;;;;;;;;;5119826;27;20208;-61
2021/09/17 11:29:40;;;;;;;2.77;1.90;;;;;;;;;;5119946;28;20202;-63
2021/09/17 11:32:08;;;;;;;2.57;2.37;;;;;;;;;;5119558;28;20211;-62
2021/09/17 11:34:36;;;;;;;3.77;2.00;;;;;;;;;;5119711;28;20227;-61
2021/09/17 11:37:05;;;;;;;2.13;1.97;;;;;;;;;;5119815;28;20217;-62
2021/09/17 11:39:34;;;;;;;2.77;2.13;;;;;;;;;;5119845;28;20238;-62
2021/09/17 11:42:04;;;;;;;2.07;1.97;;;;;;;;;;5119992;28;20208;-62
2021/09/17 11:44:34;;;;;;;1.83;1.73;;;;;;;;;;5119690;28;20249;-62
2021/09/17 11:47:04;;;;;;;1.97;1.83;;;;;;;;;;5119698;28;20571;-62
2021/09/17 11:49:33;;;;;;;2.33;2.13;;;;;;;;;;5119903;28;20215;-62
2021/09/17 11:52:01;;;;;;;1.93;1.70;;;;;;;;;;5119421;28;20211;-60
2021/09/17 11:54:30;;;;;;;2.37;1.97;;;;;;;;;;5119205;28;20231;-61
2021/09/17 11:56:58;;;;;;;4.33;2.50;;;;;;;;;;5119809;28;20210;-62
2021/09/17 11:59:36;;;;;;;2.63;2.10;;;;;;;;;;5119123;28;20549;-61
2021/09/17 12:02:17;;;;;;;2.10;1.90;;;;;;;;;;5119202;28;20578;-61
2021/09/17 12:04:48;;;;;;;2.47;2.10;;;;;;;;;;5107843;28;20231;-60
2021/09/17 12:07:16;;;;;;;2.53;2.37;;;;;;;;;;5119161;28;20249;-60
2021/09/17 12:09:44;;;;;;;3.07;2.20;;;;;;;;;;5119364;28;20648;-62
2021/09/17 12:12:13;;;;;;;8.47;1.80;;;;;;;;;;5119298;28;20283;-61
2021/09/17 12:14:50;;;;;;;4.03;2.77;;;;;;;;;;5118850;27;20249;-61
2021/09/17 12:17:19;;;;;;;2.37;2.17;;;;;;;;;;5119259;28;20211;-61
2021/09/17 12:19:54;;;;;;;2.70;1.83;;;;;;;;;;5119136;28;20206;-62
2021/09/17 12:22:29;;;;;;;2.47;1.80;;;;;;;;;;5119105;28;20228;-60
2021/09/17 12:25:06;;;;;;;2.73;1.80;;;;;;;;;;5117825;28;20219;-62
2021/09/17 12:27:34;;;;;;;2.70;2.10;;;;;;;;;;5119001;28;20602;-60
2021/09/17 12:30:03;;;;;;;2.70;1.80;;;;;;;;;;5119012;28;20653;-62
2021/09/17 12:32:32;;;;;;;2.73;1.60;;;;;;;;;;5118683;27;20294;-61
2021/09/17 12:35:05;;;;;;;2.53;1.93;;;;;;;;;;5118340;28;20256;-62
2021/09/17 12:37:33;;;;;;;2.87;2.20;;;;;;;;;;5118694;28;20574;-62
2021/09/17 12:40:11;;;;;;;1.97;1.83;;;;;;;;;;5118712;28;20273;-62
2021/09/17 12:42:39;;;;;;;1.70;1.60;;;;;;;;;;5118739;28;20207;-62
2021/09/17 12:45:08;;;;;;;3.63;1.90;;;;;;;;;;5118375;28;20650;-61
2021/09/17 12:47:38;;;;;;;3.97;1.80;;;;;;;;;;5118560;28;20203;-61
2021/09/17 12:50:07;;;;;;;2.10;2.00;;;;;;;;;;5118388;28;20223;-60
2021/09/17 12:52:37;;;;;;;4.40;2.00;;;;;;;;;;5118510;28;20236;-61
2021/09/17 12:55:21;;;;;;;4.93;1.90;;;;;;;;;;5118347;28;20235;-63
2021/09/17 12:58:01;;;;;;;2.07;1.93;;;;;;;;;;5116238;28;20292;-63
2021/09/17 13:00:34;;;;;;;1.80;1.70;;;;;;;;;;5118525;28;20297;-62
2021/09/17 13:03:05;;;;;;;3.93;2.10;;;;;;;;;;5118170;28;20197;-61
2021/09/17 13:05:34;;;;;;;1.90;1.80;;;;;;;;;;5117807;28;20228;-61
2021/09/17 13:08:03;;;;;;;2.57;1.97;;;;;;;;;;5118436;28;20218;-61
2021/09/17 13:10:31;;;;;;;1.80;1.70;;;;;;;;;;5118140;28;20376;-60
2021/09/17 13:12:59;;;;;;;2.10;1.90;;;;;;;;;;5118319;28;20207;-62
2021/09/17 13:15:27;;;;;;;2.63;2.43;;;;;;;;;;5118158;28;20383;-61
2021/09/17 13:17:56;;;;;;;4.83;1.60;;;;;;;;;;5118753;28;20269;-64
2021/09/17 13:20:25;;;;;;;1.67;1.57;;;;;;;;;;5118193;28;20204;-63
2021/09/17 13:22:54;;;;;;;1.93;1.83;;;;;;;;;;5118403;28;20206;-64
2021/09/17 13:25:22;;;;;;;1.60;1.50;;;;;;;;;;5118037;28;20316;-61
2021/09/17 13:27:51;;;;;;;3.00;1.93;;;;;;;;;;5117950;28;20245;-61
2021/09/17 13:30:19;;;;;;;4.23;1.90;;;;;;;;;;5118280;28;20211;-61
2021/09/17 13:32:48;;;;;;;3.33;1.77;;;;;;;;;;5118104;28;20215;-61
2021/09/17 13:35:17;;;;;;;1.70;1.60;;;;;;;;;;5118356;28;20316;-61
2021/09/17 13:37:46;;;;;;;2.53;1.77;;;;;;;;;;5122340;28;20207;-61
2021/09/17 13:40:18;;;;;;;1.60;1.50;;;;;;;;;;5122599;28;20204;-61
2021/09/17 13:42:47;;;;;;;3.13;1.90;;;;;;;;;;5122103;28;20205;-62
2021/09/17 13:45:16;;;;;;;1.83;1.70;;;;;;;;;;5122297;28;20225;-63
2021/09/17 13:47:44;;;;;;;1.80;1.70;;;;;;;;;;5122188;28;20653;-63
2021/09/17 13:50:15;;;;;;;2.83;1.63;;;;;;;;;;5122000;28;20205;-61
2021/09/17 13:52:44;;;;;;;3.00;2.00;;;;;;;;;;5121818;28;20638;-63
2021/09/17 13:55:14;;;;;;;3.40;1.60;;;;;;;;;;5121780;28;20230;-61
2021/09/17 13:57:42;;;;;;;2.20;2.00;;;;;;;;;;5121982;28;20221;-61
2021/09/17 14:00:10;;;;;;;1.47;1.37;;;;;;;;;;5122063;28;20222;-61
2021/09/17 14:02:39;;;;;;;3.33;1.80;;;;;;;;;;5121516;28;20566;-61
2021/09/17 14:05:09;;;;;;;2.30;1.80;;;;;;;;;;5121237;28;20595;-60
2021/09/17 14:07:37;;;;;;;3.00;1.87;;;;;;;;;;5121700;28;20244;-61
2021/09/17 14:10:05;;;;;;;3.83;1.97;;;;;;;;;;5121922;28;20265;-61
2021/09/17 14:12:35;;;;;;;1.80;1.70;;;;;;;;;;5121500;28;20216;-61
2021/09/17 14:15:04;;;;;;;2.00;1.80;;;;;;;;;;5121141;28;20241;-61
2021/09/17 14:17:32;;;;;;;2.60;1.57;;;;;;;;;;5121260;28;20216;-62
2021/09/17 14:20:00;;;;;;;3.93;1.93;;;;;;;;;;5121312;28;20292;-61
2021/09/17 14:22:28;;;;;;;3.97;2.03;;;;;;;;;;5121555;28;20288;-61
2021/09/17 14:24:56;;;;;;;1.90;1.77;;;;;;;;;;5121269;28;20224;-61
2021/09/17 14:27:24;;;;;;;2.03;1.83;;;;;;;;;;5121404;28;20206;-62
2021/09/17 14:29:53;;;;;;;1.77;1.63;;;;;;;;;;5120900;28;20244;-61
2021/09/17 14:32:23;;;;;;;1.87;1.73;;;;;;;;;;5121299;28;20269;-63
2021/09/17 14:34:51;;;;;;;4.30;2.23;;;;;;;;;;5120668;27;20574;-61
2021/09/17 14:37:19;;;;;;;2.70;2.10;;;;;;;;;;5120903;28;20595;-63
2021/09/17 14:39:47;;;;;;;2.13;1.47;;;;;;;;;;5120988;28;20690;-63
2021/09/17 14:42:15;;;;;;;1.70;1.60;;;;;;;;;;5120948;28;20209;-63
2021/09/17 14:44:43;;;;;;;1.60;1.50;;;;;;;;;;5120890;27;20223;-63
2021/09/17 14:47:13;;;;;;;3.03;1.90;;;;;;;;;;5119745;28;20294;-63
2021/09/17 14:49:42;;;;;;;2.43;1.97;;;;;;;;;;5120455;28;20208;-63
2021/09/17 14:52:10;;;;;;;3.80;2.37;;;;;;;;;;5120737;28;20654;-63
2021/09/17 14:54:38;;;;;;;2.30;2.20;;;;;;;;;;5120601;27;20593;-63
2021/09/17 14:57:06;;;;;;;1.90;1.80;;;;;;;;;;5120761;28;20292;-63
2021/09/17 14:59:34;;;;;;;2.07;1.87;;;;;;;;;;5120681;28;20685;-63